createdAt,value
2023-08-10T07:08:32.439Z,97096.97
2023-08-10T07:09:33.940Z,97100.50
2023-08-10T07:10:38.920Z,97093.25
2023-08-10T07:11:40.412Z,97091.75
2023-08-10T07:12:43.377Z,97106.91
2023-08-10T07:13:45.356Z,97104.06
2023-08-10T07:14:47.291Z,97098.16
2023-08-10T07:15:49.275Z,97112.16
2023-08-10T07:16:50.725Z,97108.09
2023-08-10T07:17:52.416Z,97109.50
2023-08-10T07:18:53.929Z,97110.78
2023-08-10T07:19:55.317Z,97110.84
2023-08-10T07:20:57.642Z,97111.97
2023-08-10T07:21:59.136Z,97123.31
2023-08-10T07:23:00.579Z,97118.44
2023-08-10T07:24:02.100Z,97127.16
2023-08-10T07:25:06.792Z,97125.28
2023-08-10T07:26:08.193Z,97116.94
2023-08-10T07:27:10.198Z,97120.63
2023-08-10T07:28:12.054Z,97110.81
2023-08-10T07:29:13.692Z,97124.78
2023-08-10T07:30:15.383Z,97106.34
2023-08-10T07:31:17.101Z,97112.28
2023-08-10T07:32:21.182Z,97118.97
2023-08-10T07:33:22.594Z,97121.59
2023-08-10T07:34:24.023Z,97117.34
2023-08-10T07:35:25.621Z,97111.41
2023-08-10T07:36:27.334Z,97116.19
2023-08-10T07:37:29.123Z,97115.97
2023-08-10T07:38:30.662Z,97109.84
2023-08-10T07:39:32.129Z,97108.16
2023-08-10T07:40:33.541Z,97116.75
2023-08-10T07:41:34.990Z,97108.59
2023-08-10T07:42:36.555Z,97113.00
2023-08-10T07:43:38.160Z,97115.88
2023-08-10T07:44:39.541Z,97117.03
2023-08-10T07:45:41.047Z,97116.28
2023-08-10T07:46:42.541Z,97118.00
2023-08-10T07:47:44.043Z,97113.97
2023-08-10T07:48:46.940Z,97116.41
2023-08-10T07:49:48.382Z,97114.69
2023-08-10T07:50:50.539Z,97122.75
2023-08-10T07:51:51.960Z,97118.84
2023-08-10T07:52:53.764Z,97120.78
2023-08-10T07:53:55.175Z,97128.97
2023-08-10T07:54:56.632Z,97126.13
2023-08-10T07:55:58.119Z,97125.69
2023-08-10T07:56:59.616Z,97129.47
2023-08-10T07:58:01.013Z,97117.63
2023-08-10T07:59:02.568Z,97124.25
2023-08-10T08:00:06.827Z,97117.00
2023-08-10T08:01:09.118Z,97124.00
2023-08-10T08:02:10.673Z,97123.56
2023-08-10T08:03:13.121Z,97117.44
2023-08-10T08:04:14.695Z,97111.03
2023-08-10T08:05:17.339Z,97110.78
2023-08-10T08:06:18.748Z,97117.34
2023-08-10T08:07:20.268Z,97119.00
2023-08-10T08:08:21.762Z,97118.41
2023-08-10T08:09:24.126Z,97117.91
2023-08-10T08:10:25.528Z,97123.25
2023-08-10T08:11:26.966Z,97123.19
2023-08-10T08:12:29.068Z,97123.00
2023-08-10T08:13:30.541Z,97133.28
2023-08-10T08:14:31.901Z,97124.69
2023-08-10T08:15:35.128Z,97122.78
2023-08-10T08:16:36.744Z,97130.28
2023-08-10T08:18:15.857Z,97130.00
2023-08-10T08:19:19.162Z,97128.06
2023-08-10T08:20:20.593Z,97131.91
2023-08-10T08:21:24.130Z,97117.56
2023-08-10T08:22:25.802Z,97124.91
2023-08-10T08:23:27.334Z,97119.41
2023-08-10T08:24:29.312Z,97116.69
2023-08-10T08:25:30.756Z,97110.88
2023-08-10T08:26:33.590Z,97116.75
2023-08-10T08:27:36.817Z,97119.97
2023-08-10T08:28:38.419Z,97112.47
2023-08-10T08:29:39.841Z,97093.63
2023-08-10T08:30:41.288Z,97116.53
2023-08-10T08:31:42.831Z,97113.63
2023-08-10T08:33:52.145Z,97115.06
2023-08-10T08:34:53.568Z,97114.09
2023-08-10T08:35:55.171Z,97109.13
2023-08-10T08:36:56.567Z,97118.13
2023-08-10T08:37:57.986Z,97118.22
2023-08-10T08:38:59.402Z,97109.38
2023-08-10T08:40:00.791Z,97106.50
2023-08-10T08:41:07.330Z,97113.28
2023-08-10T08:42:08.892Z,97114.13
2023-08-10T08:43:11.960Z,97114.06
2023-08-10T08:44:14.638Z,97112.75
2023-08-10T08:45:17.075Z,97109.25
2023-08-10T08:46:25.830Z,97108.81
2023-08-10T08:47:27.391Z,97109.53
2023-08-10T08:48:29.343Z,97108.81
2023-08-10T08:49:31.095Z,97108.56
2023-08-10T08:50:33.187Z,97107.63
2023-08-10T08:51:35.775Z,97110.16
2023-08-10T08:52:39.551Z,97109.09
2023-08-10T08:53:41.157Z,97094.75
2023-08-10T08:54:42.589Z,97102.50
2023-08-10T08:55:44.400Z,97102.88
2023-08-10T08:56:45.818Z,97110.16
2023-08-10T08:57:48.621Z,97097.78
2023-08-10T08:58:50.745Z,97110.63
2023-08-10T08:59:53.503Z,97104.56
2023-08-10T09:00:55.555Z,97111.78
2023-08-10T09:02:01.859Z,97105.81
2023-08-10T09:03:10.420Z,97105.34
2023-08-10T09:04:12.020Z,97099.34
2023-08-10T09:07:30.945Z,97100.34
2023-08-10T09:08:32.878Z,97099.13
2023-08-10T09:09:36.439Z,97108.09
2023-08-10T09:10:38.023Z,97101.84
2023-08-10T09:11:39.615Z,97108.78
2023-08-10T09:12:41.322Z,97100.56
2023-08-10T09:16:18.878Z,97104.38
2023-08-10T09:17:23.058Z,97098.94
2023-08-10T09:18:24.431Z,97101.31
2023-08-10T09:19:25.855Z,97090.63
2023-08-10T09:20:31.653Z,97102.50
2023-08-10T09:21:35.017Z,97095.38
2023-08-10T09:22:38.850Z,97098.09
2023-08-10T09:26:20.075Z,97087.19
2023-08-10T09:27:21.599Z,97090.41
2023-08-10T09:28:22.952Z,97086.22
2023-08-10T09:29:30.480Z,97085.50
2023-08-10T09:30:34.370Z,97083.13
2023-08-10T09:31:35.908Z,97084.25
2023-08-10T09:32:39.654Z,97081.78
2023-08-10T09:36:10.650Z,97086.66
2023-08-10T09:37:14.557Z,97080.50
2023-08-10T09:38:20.377Z,97077.53
2023-08-10T09:39:21.939Z,97082.25
2023-08-10T09:40:26.843Z,97081.97
2023-08-10T09:41:28.750Z,97076.97
2023-08-10T09:42:34.937Z,97082.56
2023-08-10T09:43:41.084Z,97078.09
2023-08-10T09:47:18.606Z,97071.47
2023-08-10T09:48:20.200Z,97076.00
2023-08-10T09:49:21.688Z,97074.31
2023-08-10T09:50:23.086Z,97066.03
2023-08-10T09:51:24.564Z,97070.13
2023-08-10T09:52:26.793Z,97076.53
2023-08-10T09:53:28.301Z,97065.06
2023-08-10T09:54:31.220Z,97074.19
2023-08-10T09:55:32.738Z,97076.63
2023-08-10T09:56:34.464Z,97063.38
2023-08-10T09:57:41.293Z,97069.69
2023-08-10T09:58:43.721Z,97065.56
2023-08-10T09:59:46.611Z,97064.34
2023-08-10T10:00:50.277Z,97060.16
2023-08-10T10:01:54.270Z,97064.81
2023-08-10T10:02:56.262Z,97065.88
2023-08-10T10:03:58.120Z,97064.34
2023-08-10T10:04:59.714Z,97063.94
2023-08-10T10:06:02.660Z,97062.00
2023-08-10T10:07:05.147Z,97063.91
2023-08-10T10:08:07.244Z,97067.28
2023-08-10T10:09:09.216Z,97064.00
2023-08-10T10:10:17.277Z,97060.88
2023-08-10T10:11:20.777Z,97057.72
2023-08-10T10:12:23.050Z,97059.72
2023-08-10T10:13:24.978Z,97057.56
2023-08-10T10:14:27.771Z,97053.03
2023-08-10T10:15:30.687Z,97052.38
2023-08-10T10:16:34.535Z,97053.53
2023-08-10T10:21:20.266Z,97061.75
2023-08-10T10:22:22.013Z,97051.34
2023-08-10T10:23:23.500Z,97046.69
2023-08-10T10:24:29.541Z,97058.03
2023-08-10T10:25:31.313Z,97048.56
2023-08-10T10:26:32.984Z,97050.97
2023-08-10T10:27:41.300Z,97051.00
2023-08-10T10:28:42.991Z,97051.91
2023-08-10T10:29:53.692Z,97052.97
2023-08-10T10:31:08.481Z,97049.75
2023-08-10T10:32:24.320Z,97041.06
2023-08-10T10:37:08.767Z,97036.09
2023-08-10T10:38:10.394Z,97036.50
2023-08-10T10:39:21.374Z,97036.34
2023-08-10T10:40:24.414Z,97034.22
2023-08-10T10:41:33.981Z,97039.00
2023-08-10T10:42:35.390Z,97038.09
2023-08-10T10:43:36.886Z,97036.53
2023-08-10T10:45:04.476Z,97033.34
2023-08-10T10:46:05.931Z,97028.50
2023-08-10T10:47:18.465Z,97032.88
2023-08-10T10:48:36.179Z,97036.38
2023-08-10T10:49:53.107Z,97032.53
2023-08-10T10:50:54.518Z,97021.97
2023-08-10T10:52:01.969Z,97031.16
2023-08-10T10:53:05.846Z,97027.25
2023-08-10T10:54:07.454Z,97024.63
2023-08-10T10:59:16.326Z,97015.63
2023-08-10T11:00:23.588Z,97020.38
2023-08-10T11:01:25.110Z,97013.72
2023-08-10T11:02:27.872Z,97013.03
2023-08-10T11:03:30.578Z,97025.63
2023-08-10T11:04:32.381Z,97018.56
2023-08-10T11:05:34.734Z,97018.56
2023-08-10T11:06:38.357Z,97018.53
2023-08-10T11:07:44.058Z,97012.91
2023-08-10T11:08:49.736Z,97010.88
2023-08-10T11:09:52.328Z,97013.66
2023-08-10T11:10:56.955Z,97008.66
2023-08-10T11:11:58.681Z,97003.28
2023-08-10T11:14:03.899Z,97003.78
2023-08-10T11:15:10.573Z,97002.72
2023-08-10T11:16:12.247Z,97004.88
2023-08-10T11:17:13.863Z,97003.97
2023-08-10T11:18:15.709Z,97000.06
2023-08-10T11:19:19.978Z,97007.56
2023-08-10T11:20:22.423Z,97008.16
2023-08-10T11:21:23.861Z,96997.13
2023-08-10T11:22:25.630Z,96999.97
2023-08-10T11:23:27.084Z,97001.47
2023-08-10T11:24:31.965Z,96999.78
2023-08-10T11:25:34.036Z,96999.13
2023-08-10T11:31:42.954Z,96996.94
2023-08-10T11:32:48.653Z,96992.44
2023-08-10T11:33:51.671Z,96989.06
2023-08-10T11:34:54.646Z,96990.75
2023-08-10T11:35:57.549Z,96989.38
2023-08-10T11:36:59.467Z,96999.13
2023-08-10T11:38:01.096Z,96989.41
2023-08-10T11:39:07.892Z,96993.09
2023-08-10T11:40:29.731Z,96995.50
2023-08-10T11:41:43.299Z,96994.94
2023-08-10T11:42:50.508Z,96989.75
2023-08-10T11:43:51.927Z,96993.09
2023-08-10T11:44:53.337Z,96988.75
2023-08-10T11:45:55.326Z,96991.88
2023-08-10T11:46:59.367Z,96989.66
2023-08-10T11:48:04.904Z,96985.44
2023-08-10T11:49:08.053Z,96991.44
2023-08-10T11:50:10.404Z,96989.19
2023-08-10T11:51:13.707Z,96990.94
2023-08-10T11:52:17.450Z,96988.16
2023-08-10T11:53:21.939Z,96997.16
2023-08-10T11:54:31.322Z,96988.41
2023-08-10T11:55:32.861Z,96982.22
2023-08-10T11:56:34.931Z,96996.84
2023-08-10T11:57:38.004Z,96994.28
2023-08-10T11:58:41.051Z,96987.34
2023-08-10T11:59:43.859Z,96993.78
2023-08-10T12:00:54.934Z,96992.19
2023-08-10T12:01:59.194Z,96993.66
2023-08-10T12:03:15.444Z,96997.38
2023-08-10T12:04:20.562Z,96989.44
2023-08-10T12:05:52.808Z,96997.31
2023-08-10T12:06:54.258Z,96999.25
2023-08-10T12:07:59.547Z,96993.50
2023-08-10T12:09:08.744Z,97001.03
2023-08-10T12:10:10.449Z,96994.44
2023-08-10T12:11:16.538Z,96989.09
2023-08-10T12:12:18.831Z,96998.09
2023-08-10T12:13:20.586Z,97001.38
2023-08-10T12:14:25.152Z,97000.31
2023-08-10T12:15:26.632Z,96995.78
2023-08-10T12:16:28.126Z,96999.13
2023-08-10T12:17:29.945Z,96998.44
2023-08-10T12:18:31.645Z,96996.09
2023-08-10T12:19:33.100Z,96986.69
2023-08-10T12:20:34.615Z,96990.91
2023-08-10T12:21:36.272Z,96994.44
2023-08-10T12:22:40.951Z,96997.25
2023-08-10T12:23:42.564Z,96992.44
2023-08-10T12:24:44.172Z,96995.78
2023-08-10T12:25:49.577Z,97000.03
2023-08-10T12:27:01.771Z,96995.69
2023-08-10T12:28:03.463Z,96995.75
2023-08-10T12:29:05.255Z,96996.75
2023-08-10T12:30:10.738Z,96993.56
2023-08-10T12:31:22.506Z,96992.16
2023-08-10T12:32:26.289Z,96993.81
2023-08-10T12:33:31.477Z,96993.25
2023-08-10T12:34:32.949Z,96995.88
2023-08-10T12:35:34.700Z,96991.44
2023-08-10T12:36:36.081Z,96991.44
2023-08-10T12:37:38.081Z,96992.75
2023-08-10T12:38:40.619Z,96996.44
2023-08-10T12:39:44.453Z,97001.44
2023-08-10T12:40:45.862Z,96994.81
2023-08-10T12:41:47.336Z,96992.00
2023-08-10T12:42:49.346Z,96996.44
2023-08-10T12:43:50.942Z,96997.13
2023-08-10T12:44:52.881Z,96996.84
2023-08-10T12:45:55.189Z,96982.78
2023-08-10T12:46:57.820Z,96986.56
2023-08-10T12:48:01.219Z,96997.06
2023-08-10T12:49:02.795Z,96998.25
2023-08-10T12:50:04.515Z,96997.38
2023-08-10T12:51:08.576Z,96994.84
2023-08-10T12:52:10.792Z,96989.56
2023-08-10T12:53:12.309Z,96996.28
2023-08-10T12:54:14.128Z,97004.78
2023-08-10T12:55:16.606Z,96999.56
2023-08-10T12:56:18.020Z,97004.84
2023-08-10T12:57:19.659Z,96998.94
2023-08-10T12:58:21.073Z,97001.91
2023-08-10T12:59:22.601Z,97004.94
2023-08-10T13:00:23.991Z,97003.59
2023-08-10T13:01:25.574Z,97008.19
2023-08-10T13:02:33.463Z,97005.63
2023-08-10T13:03:35.931Z,97002.81
2023-08-10T13:04:37.479Z,96994.78
2023-08-10T13:05:38.978Z,96995.63
2023-08-10T13:06:40.443Z,96998.09
2023-08-10T13:07:43.163Z,96997.84
2023-08-10T13:08:47.367Z,96997.81
2023-08-10T13:09:48.852Z,96997.88
2023-08-10T13:10:50.353Z,97000.66
2023-08-10T13:11:51.952Z,96988.72
2023-08-10T13:12:53.459Z,96994.69
2023-08-10T13:13:55.039Z,96998.91
2023-08-10T13:14:57.069Z,96991.41
2023-08-10T13:15:58.618Z,97000.59
2023-08-10T13:17:00.191Z,96996.88
2023-08-10T13:18:01.682Z,96996.81
2023-08-10T13:19:03.194Z,96994.41
2023-08-10T13:20:06.213Z,96994.47
2023-08-10T13:21:07.889Z,96989.81
2023-08-10T13:22:11.461Z,96989.44
2023-08-10T13:23:12.876Z,96990.44
2023-08-10T13:24:14.512Z,96991.13
2023-08-10T13:25:16.057Z,96990.34
2023-08-10T13:26:17.859Z,96991.38
2023-08-10T13:27:20.174Z,96985.97
2023-08-10T13:28:21.599Z,96993.91
2023-08-10T13:29:22.982Z,96991.59
2023-08-10T13:30:24.398Z,96993.16
2023-08-10T13:31:25.888Z,96988.47
2023-08-10T13:32:27.441Z,96991.84
2023-08-10T13:33:29.672Z,96989.28
2023-08-10T13:34:31.073Z,96984.56
2023-08-10T13:35:32.481Z,96986.13
2023-08-10T13:36:34.234Z,96979.16
2023-08-10T13:37:37.614Z,96986.22
2023-08-10T13:38:39.056Z,96981.75
2023-08-10T13:39:40.560Z,96976.34
2023-08-10T13:40:42.384Z,96978.41
2023-08-10T13:41:43.966Z,96986.56
2023-08-10T13:42:45.423Z,96985.41
2023-08-10T13:43:46.940Z,96982.03
2023-08-10T13:44:48.545Z,96990.00
2023-08-10T13:45:50.023Z,96976.84
2023-08-10T13:46:51.554Z,96979.03
2023-08-10T13:47:53.140Z,96976.50
2023-08-10T13:48:54.997Z,96976.47
2023-08-10T13:49:56.667Z,96982.00
2023-08-10T13:50:58.051Z,96971.16
2023-08-10T13:51:59.618Z,96982.09
2023-08-10T13:53:01.095Z,96974.41
2023-08-10T13:54:02.504Z,96974.91
2023-08-10T13:55:05.310Z,96976.66
2023-08-10T13:56:06.738Z,96982.53
2023-08-10T13:57:12.431Z,96975.00
2023-08-10T13:58:14.300Z,96978.34
2023-08-10T13:59:15.968Z,96975.44
2023-08-10T14:00:18.130Z,96978.13
2023-08-10T14:01:20.495Z,96983.72
2023-08-10T14:02:22.101Z,96985.34
2023-08-10T14:03:23.671Z,96982.06
2023-08-10T14:04:25.215Z,96987.81
2023-08-10T14:05:26.795Z,96986.47
2023-08-10T14:06:28.157Z,96981.69
2023-08-10T14:07:30.012Z,96979.09
2023-08-10T14:08:32.026Z,96977.63
2023-08-10T14:09:33.464Z,96982.22
2023-08-10T14:10:34.975Z,96975.59
2023-08-10T14:11:36.363Z,96966.38
2023-08-10T14:12:37.834Z,96977.84
2023-08-10T14:13:39.334Z,96981.63
2023-08-10T14:14:41.058Z,96973.88
2023-08-10T14:15:42.733Z,96969.72
2023-08-10T14:16:47.871Z,96980.44
2023-08-10T14:17:49.377Z,96969.00
2023-08-10T14:18:50.833Z,96971.75
2023-08-10T14:19:52.225Z,96970.06
2023-08-10T14:20:53.804Z,96973.25
2023-08-10T14:21:56.298Z,96968.91
2023-08-10T14:22:57.746Z,96966.34
2023-08-10T14:24:02.315Z,96966.94
2023-08-10T14:25:04.453Z,96967.09
2023-08-10T14:26:05.817Z,96965.75
2023-08-10T14:27:07.234Z,96970.97
2023-08-10T14:28:08.646Z,96971.63
2023-08-10T14:29:10.686Z,96969.69
2023-08-10T14:30:12.578Z,96976.03
2023-08-10T14:31:14.116Z,96973.19
2023-08-10T14:32:15.599Z,96965.56
2023-08-10T14:33:17.155Z,96965.25
2023-08-10T14:34:19.769Z,96970.81
2023-08-10T14:35:21.260Z,96967.59
2023-08-10T14:36:22.837Z,96960.94
2023-08-10T14:37:24.373Z,96960.09
2023-08-10T14:38:38.064Z,96960.38
2023-08-10T14:39:44.801Z,96953.59
2023-08-10T14:40:46.365Z,96952.50
2023-08-10T14:41:50.935Z,96955.16
2023-08-10T14:42:52.446Z,96952.94
2023-08-10T14:43:54.887Z,96955.13
2023-08-10T14:44:56.348Z,96957.50
2023-08-10T14:45:57.899Z,96962.28
2023-08-10T14:46:59.544Z,96954.47
2023-08-10T14:48:01.693Z,96967.69
2023-08-10T14:49:04.545Z,96963.69
2023-08-10T14:50:07.137Z,96959.59
2023-08-10T14:51:08.523Z,96968.78
2023-08-10T14:52:10.133Z,96964.59
2023-08-10T14:53:11.637Z,96972.69
2023-08-10T14:54:13.022Z,96961.00
2023-08-10T14:55:21.255Z,96966.63
2023-08-10T14:56:23.036Z,96963.59
2023-08-10T14:57:24.685Z,96955.84
2023-08-10T14:58:26.378Z,96955.28
2023-08-10T14:59:28.454Z,96958.09
2023-08-10T15:00:34.818Z,96960.94
2023-08-10T15:01:36.597Z,96959.34
2023-08-10T15:02:38.281Z,96962.81
2023-08-10T15:03:39.746Z,96955.28
2023-08-10T15:04:41.189Z,96956.84
2023-08-10T15:05:43.418Z,96957.22
2023-08-10T15:06:44.924Z,96961.53
2023-08-10T15:07:46.327Z,96960.00
2023-08-10T15:08:47.768Z,96964.16
2023-08-10T15:09:49.182Z,96959.13
2023-08-10T15:10:50.762Z,96957.97
2023-08-10T15:11:52.184Z,96956.25
2023-08-10T15:12:53.647Z,96948.38
2023-08-10T15:13:55.129Z,96952.31
2023-08-10T15:14:56.547Z,96953.75
2023-08-10T15:15:57.984Z,96957.13
2023-08-10T15:16:59.717Z,96949.97
2023-08-10T15:18:01.194Z,96949.50
2023-08-10T15:19:02.706Z,96957.78
2023-08-10T15:20:13.478Z,96954.22
2023-08-10T15:21:15.025Z,96956.31
2023-08-10T15:22:16.493Z,96959.84
2023-08-10T15:23:33.066Z,96960.50
2023-08-10T15:24:39.367Z,96951.06
2023-08-10T15:25:40.975Z,96953.22
2023-08-10T15:26:42.402Z,96958.06
2023-08-10T15:27:44.202Z,96952.25
2023-08-10T15:28:48.761Z,96954.09
2023-08-10T15:29:50.325Z,96959.38
2023-08-10T15:30:51.852Z,96958.94
2023-08-10T15:31:53.383Z,96956.78
2023-08-10T15:32:55.301Z,96956.81
2023-08-10T15:33:57.110Z,96960.19
2023-08-10T15:34:58.638Z,96963.19
2023-08-10T15:36:00.168Z,96952.31
2023-08-10T15:37:01.629Z,96949.94
2023-08-10T15:38:03.084Z,96955.84
2023-08-10T15:39:04.664Z,96953.91
2023-08-10T15:40:10.024Z,96953.84
2023-08-10T15:41:11.558Z,96956.66
2023-08-10T15:42:13.974Z,96954.41
2023-08-10T15:43:15.410Z,96951.09
2023-08-10T15:44:17.087Z,96961.44
2023-08-10T15:45:20.655Z,96951.81
2023-08-10T15:46:23.544Z,96955.91
2023-08-10T15:47:25.154Z,96955.09
2023-08-10T15:48:26.885Z,96951.88
2023-08-10T15:49:28.706Z,96959.78
2023-08-10T15:50:30.358Z,96952.41
2023-08-10T15:51:31.996Z,96949.22
2023-08-10T15:52:33.464Z,96954.06
2023-08-10T15:53:35.097Z,96956.13
2023-08-10T15:54:36.528Z,96949.97
2023-08-10T15:55:37.943Z,96955.28
2023-08-10T15:56:40.073Z,96949.63
2023-08-10T15:57:41.477Z,96952.28
2023-08-10T15:58:43.301Z,96951.50
2023-08-10T15:59:44.723Z,96948.41
2023-08-10T16:00:46.231Z,96951.09
2023-08-10T16:01:47.703Z,96946.00
2023-08-10T16:02:49.188Z,96941.53
2023-08-10T16:03:50.915Z,96948.28
2023-08-10T16:04:52.374Z,96947.13
2023-08-10T16:05:54.415Z,96951.59
2023-08-10T16:06:55.854Z,96952.22
2023-08-10T16:07:57.386Z,96947.06
2023-08-10T16:08:58.798Z,96952.91
2023-08-10T16:10:01.000Z,96951.16
2023-08-10T16:11:02.389Z,96948.56
2023-08-10T16:12:05.847Z,96954.59
2023-08-10T16:13:07.544Z,96947.34
2023-08-10T16:14:08.995Z,96955.22
2023-08-10T16:15:10.907Z,96956.19
2023-08-10T16:16:12.375Z,96949.69
2023-08-10T16:17:14.033Z,96954.25
2023-08-10T16:18:15.451Z,96950.34
2023-08-10T16:19:20.608Z,96949.78
2023-08-10T16:20:23.138Z,96948.47
2023-08-10T16:21:24.634Z,96944.13
2023-08-10T16:22:26.481Z,96945.44
2023-08-10T16:23:27.919Z,96952.28
2023-08-10T16:24:29.595Z,96945.13
2023-08-10T16:25:31.102Z,96952.94
2023-08-10T16:26:32.719Z,96963.47
2023-08-10T16:27:34.242Z,96947.06
2023-08-10T16:28:35.799Z,96941.94
2023-08-10T16:29:37.458Z,96955.09
2023-08-10T16:30:38.937Z,96955.91
2023-08-10T16:31:40.328Z,96964.47
2023-08-10T16:32:41.784Z,96955.56
2023-08-10T16:33:44.362Z,96953.06
2023-08-10T16:34:45.781Z,96954.78
2023-08-10T16:35:47.148Z,96957.25
2023-08-10T16:36:48.542Z,96960.09
2023-08-10T16:37:50.055Z,96960.03
2023-08-10T16:38:51.536Z,96959.72
2023-08-10T16:39:53.035Z,96961.47
2023-08-10T16:40:54.549Z,96965.84
2023-08-10T16:41:56.159Z,96955.91
2023-08-10T16:42:57.594Z,96965.47
2023-08-10T16:43:59.289Z,96958.25
2023-08-10T16:45:00.768Z,96963.34
2023-08-10T16:46:03.220Z,96965.03
2023-08-10T16:47:04.950Z,96963.44
2023-08-10T16:48:07.554Z,96961.00
2023-08-10T16:49:08.992Z,96957.94
2023-08-10T16:50:10.749Z,96954.78
2023-08-10T16:51:12.596Z,96968.94
2023-08-10T16:52:14.040Z,96959.88
2023-08-10T16:53:15.443Z,96963.34
2023-08-10T16:54:16.899Z,96960.69
2023-08-10T16:55:18.964Z,96957.28
2023-08-10T16:56:21.288Z,96958.00
2023-08-10T16:57:22.861Z,96965.69
2023-08-10T16:58:24.381Z,96953.69
2023-08-10T16:59:25.865Z,96954.97
2023-08-10T17:00:27.895Z,96962.63
2023-08-10T17:01:29.429Z,96962.06
2023-08-10T17:02:30.952Z,96956.50
2023-08-10T17:03:32.582Z,96947.81
2023-08-10T17:04:34.196Z,96966.31
2023-08-10T17:12:21.808Z,96955.16
2023-08-10T17:13:23.780Z,96953.84
2023-08-10T17:20:41.367Z,96952.38
2023-08-10T17:27:31.026Z,96963.34
2023-08-10T17:33:46.810Z,96961.38
2023-08-10T17:40:18.789Z,96958.97
